sensor_id;sensor_type;location;lat;lon;timestamp;P1;durP1;ratioP1;P2;durP2;ratioP2
20699;SDS011;10511;51.232;9.420;2023-07-02T00:01:56;0.70;;;0.70;;
20699;SDS011;10511;51.232;9.420;2023-07-02T00:04:23;0.73;;;0.73;;
20699;SDS011;10511;51.232;9.420;2023-07-02T00:06:50;0.70;;;0.70;;
20699;SDS011;10511;51.232;9.420;2023-07-02T00:09:17;0.70;;;0.70;;
20699;SDS011;10511;51.232;9.420;2023-07-02T00:11:45;0.77;;;0.77;;
20699;SDS011;10511;51.232;9.420;2023-07-02T00:14:12;0.70;;;0.70;;
20699;SDS011;10511;51.232;9.420;2023-07-02T00:16:42;0.80;;;0.80;;
20699;SDS011;10511;51.232;9.420;2023-07-02T00:19:11;0.70;;;0.70;;
20699;SDS011;10511;51.232;9.420;2023-07-02T00:21:41;0.70;;;0.70;;
20699;SDS011;10511;51.232;9.420;2023-07-02T00:24:08;0.70;;;0.70;;
20699;SDS011;10511;51.232;9.420;2023-07-02T00:26:36;0.70;;;0.70;;
20699;SDS011;10511;51.232;9.420;2023-07-02T00:29:05;0.70;;;0.70;;
20699;SDS011;10511;51.232;9.420;2023-07-02T00:31:33;0.70;;;0.70;;
20699;SDS011;10511;51.232;9.420;2023-07-02T00:34:00;0.80;;;0.80;;
20699;SDS011;10511;51.232;9.420;2023-07-02T00:36:29;0.70;;;0.70;;
20699;SDS011;10511;51.232;9.420;2023-07-02T00:38:56;0.80;;;0.80;;
20699;SDS011;10511;51.232;9.420;2023-07-02T00:41:23;0.70;;;0.70;;
20699;SDS011;10511;51.232;9.420;2023-07-02T00:43:50;0.70;;;0.70;;
20699;SDS011;10511;51.232;9.420;2023-07-02T00:46:19;0.70;;;0.70;;
20699;SDS011;10511;51.232;9.420;2023-07-02T00:48:48;0.80;;;0.80;;
20699;SDS011;10511;51.232;9.420;2023-07-02T00:51:16;0.70;;;0.70;;
20699;SDS011;10511;51.232;9.420;2023-07-02T00:53:45;0.77;;;0.77;;
20699;SDS011;10511;51.232;9.420;2023-07-02T00:56:13;0.70;;;0.70;;
20699;SDS011;10511;51.232;9.420;2023-07-02T00:58:41;0.70;;;0.70;;
20699;SDS011;10511;51.232;9.420;2023-07-02T01:01:14;0.70;;;0.70;;
20699;SDS011;10511;51.232;9.420;2023-07-02T01:03:49;0.80;;;0.80;;
20699;SDS011;10511;51.232;9.420;2023-07-02T01:06:19;0.70;;;0.70;;
20699;SDS011;10511;51.232;9.420;2023-07-02T01:08:51;0.70;;;0.70;;
20699;SDS011;10511;51.232;9.420;2023-07-02T01:11:19;0.70;;;0.70;;
20699;SDS011;10511;51.232;9.420;2023-07-02T01:13:50;0.80;;;0.80;;
20699;SDS011;10511;51.232;9.420;2023-07-02T01:16:19;0.80;;;0.80;;
20699;SDS011;10511;51.232;9.420;2023-07-02T01:18:47;0.70;;;0.70;;
20699;SDS011;10511;51.232;9.420;2023-07-02T01:21:17;0.70;;;0.70;;
20699;SDS011;10511;51.232;9.420;2023-07-02T01:23:44;0.80;;;0.80;;
20699;SDS011;10511;51.232;9.420;2023-07-02T01:26:12;0.70;;;0.70;;
20699;SDS011;10511;51.232;9.420;2023-07-02T01:28:39;0.73;;;0.73;;
20699;SDS011;10511;51.232;9.420;2023-07-02T01:31:07;0.80;;;0.80;;
20699;SDS011;10511;51.232;9.420;2023-07-02T01:33:34;0.80;;;0.80;;
20699;SDS011;10511;51.232;9.420;2023-07-02T01:36:01;0.70;;;0.70;;
20699;SDS011;10511;51.232;9.420;2023-07-02T01:38:29;0.70;;;0.70;;
20699;SDS011;10511;51.232;9.420;2023-07-02T01:40:56;0.70;;;0.70;;
20699;SDS011;10511;51.232;9.420;2023-07-02T01:43:23;0.80;;;0.80;;
20699;SDS011;10511;51.232;9.420;2023-07-02T01:45:50;0.70;;;0.70;;
20699;SDS011;10511;51.232;9.420;2023-07-02T01:48:17;0.70;;;0.70;;
20699;SDS011;10511;51.232;9.420;2023-07-02T01:50:44;0.80;;;0.80;;
20699;SDS011;10511;51.232;9.420;2023-07-02T01:53:11;0.70;;;0.70;;
20699;SDS011;10511;51.232;9.420;2023-07-02T01:55:39;0.80;;;0.80;;
20699;SDS011;10511;51.232;9.420;2023-07-02T01:58:06;0.70;;;0.70;;
20699;SDS011;10511;51.232;9.420;2023-07-02T02:00:33;0.70;;;0.70;;
20699;SDS011;10511;51.232;9.420;2023-07-02T02:03:00;0.80;;;0.80;;
20699;SDS011;10511;51.232;9.420;2023-07-02T02:05:27;0.70;;;0.70;;
20699;SDS011;10511;51.232;9.420;2023-07-02T02:07:54;0.70;;;0.70;;
20699;SDS011;10511;51.232;9.420;2023-07-02T02:10:21;0.70;;;0.70;;
20699;SDS011;10511;51.232;9.420;2023-07-02T02:12:49;0.80;;;0.80;;
20699;SDS011;10511;51.232;9.420;2023-07-02T02:15:16;0.70;;;0.70;;
20699;SDS011;10511;51.232;9.420;2023-07-02T02:17:43;0.70;;;0.70;;
20699;SDS011;10511;51.232;9.420;2023-07-02T02:20:10;0.70;;;0.70;;
20699;SDS011;10511;51.232;9.420;2023-07-02T02:22:38;0.70;;;0.70;;
20699;SDS011;10511;51.232;9.420;2023-07-02T02:25:05;0.70;;;0.70;;
20699;SDS011;10511;51.232;9.420;2023-07-02T02:27:32;0.80;;;0.80;;
20699;SDS011;10511;51.232;9.420;2023-07-02T02:30:00;0.80;;;0.80;;
20699;SDS011;10511;51.232;9.420;2023-07-02T02:32:27;0.80;;;0.80;;
20699;SDS011;10511;51.232;9.420;2023-07-02T02:34:54;0.70;;;0.70;;
20699;SDS011;10511;51.232;9.420;2023-07-02T02:37:21;0.80;;;0.80;;
20699;SDS011;10511;51.232;9.420;2023-07-02T02:39:48;0.70;;;0.70;;
20699;SDS011;10511;51.232;9.420;2023-07-02T02:42:15;0.80;;;0.80;;
20699;SDS011;10511;51.232;9.420;2023-07-02T02:44:42;0.80;;;0.80;;
20699;SDS011;10511;51.232;9.420;2023-07-02T02:47:11;0.70;;;0.70;;
20699;SDS011;10511;51.232;9.420;2023-07-02T02:49:38;0.70;;;0.70;;
20699;SDS011;10511;51.232;9.420;2023-07-02T02:52:05;0.80;;;0.80;;
20699;SDS011;10511;51.232;9.420;2023-07-02T02:54:33;0.70;;;0.70;;
20699;SDS011;10511;51.232;9.420;2023-07-02T02:56:59;0.70;;;0.70;;
20699;SDS011;10511;51.232;9.420;2023-07-02T02:59:27;0.70;;;0.70;;
20699;SDS011;10511;51.232;9.420;2023-07-02T03:01:54;0.70;;;0.70;;
20699;SDS011;10511;51.232;9.420;2023-07-02T03:04:22;0.70;;;0.70;;
20699;SDS011;10511;51.232;9.420;2023-07-02T03:06:50;0.67;;;0.67;;
20699;SDS011;10511;51.232;9.420;2023-07-02T03:09:18;0.80;;;0.80;;
20699;SDS011;10511;51.232;9.420;2023-07-02T03:11:45;0.80;;;0.80;;
20699;SDS011;10511;51.232;9.420;2023-07-02T03:14:13;0.70;;;0.70;;
20699;SDS011;10511;51.232;9.420;2023-07-02T03:16:40;0.70;;;0.70;;
20699;SDS011;10511;51.232;9.420;2023-07-02T03:19:07;0.80;;;0.80;;
20699;SDS011;10511;51.232;9.420;2023-07-02T03:21:35;0.70;;;0.70;;
20699;SDS011;10511;51.232;9.420;2023-07-02T03:24:02;0.80;;;0.80;;
20699;SDS011;10511;51.232;9.420;2023-07-02T03:26:29;0.70;;;0.70;;
20699;SDS011;10511;51.232;9.420;2023-07-02T03:28:56;0.80;;;0.80;;
20699;SDS011;10511;51.232;9.420;2023-07-02T03:31:23;0.70;;;0.70;;
20699;SDS011;10511;51.232;9.420;2023-07-02T03:33:50;0.70;;;0.70;;
20699;SDS011;10511;51.232;9.420;2023-07-02T03:36:17;0.70;;;0.70;;
20699;SDS011;10511;51.232;9.420;2023-07-02T03:38:45;0.70;;;0.70;;
20699;SDS011;10511;51.232;9.420;2023-07-02T03:41:12;0.70;;;0.70;;
20699;SDS011;10511;51.232;9.420;2023-07-02T03:43:39;0.70;;;0.70;;
20699;SDS011;10511;51.232;9.420;2023-07-02T03:46:06;0.70;;;0.70;;
20699;SDS011;10511;51.232;9.420;2023-07-02T03:48:33;0.70;;;0.70;;
20699;SDS011;10511;51.232;9.420;2023-07-02T03:51:01;0.73;;;0.73;;
20699;SDS011;10511;51.232;9.420;2023-07-02T03:53:28;0.90;;;0.90;;
20699;SDS011;10511;51.232;9.420;2023-07-02T03:55:56;0.80;;;0.80;;
20699;SDS011;10511;51.232;9.420;2023-07-02T03:58:23;0.80;;;0.80;;
20699;SDS011;10511;51.232;9.420;2023-07-02T04:00:50;0.80;;;0.80;;
20699;SDS011;10511;51.232;9.420;2023-07-02T04:03:17;0.70;;;0.70;;
20699;SDS011;10511;51.232;9.420;2023-07-02T04:05:44;0.80;;;0.80;;
20699;SDS011;10511;51.232;9.420;2023-07-02T04:08:11;0.80;;;0.80;;
20699;SDS011;10511;51.232;9.420;2023-07-02T04:10:38;0.80;;;0.80;;
20699;SDS011;10511;51.232;9.420;2023-07-02T04:13:06;0.80;;;0.80;;
20699;SDS011;10511;51.232;9.420;2023-07-02T04:15:33;0.90;;;0.90;;
20699;SDS011;10511;51.232;9.420;2023-07-02T04:18:01;0.80;;;0.80;;
20699;SDS011;10511;51.232;9.420;2023-07-02T04:20:28;0.90;;;0.90;;
20699;SDS011;10511;51.232;9.420;2023-07-02T04:22:55;0.80;;;0.80;;
20699;SDS011;10511;51.232;9.420;2023-07-02T04:25:22;0.87;;;0.87;;
20699;SDS011;10511;51.232;9.420;2023-07-02T04:27:50;0.80;;;0.80;;
20699;SDS011;10511;51.232;9.420;2023-07-02T04:30:22;0.80;;;0.80;;
20699;SDS011;10511;51.232;9.420;2023-07-02T04:32:49;0.80;;;0.80;;
20699;SDS011;10511;51.232;9.420;2023-07-02T04:35:17;0.80;;;0.80;;
20699;SDS011;10511;51.232;9.420;2023-07-02T04:37:44;0.80;;;0.80;;
20699;SDS011;10511;51.232;9.420;2023-07-02T04:40:11;0.70;;;0.70;;
20699;SDS011;10511;51.232;9.420;2023-07-02T04:42:39;0.80;;;0.80;;
20699;SDS011;10511;51.232;9.420;2023-07-02T04:45:12;0.80;;;0.80;;
20699;SDS011;10511;51.232;9.420;2023-07-02T04:47:41;0.80;;;0.80;;
20699;SDS011;10511;51.232;9.420;2023-07-02T04:50:09;0.80;;;0.80;;
20699;SDS011;10511;51.232;9.420;2023-07-02T04:52:36;0.80;;;0.80;;
20699;SDS011;10511;51.232;9.420;2023-07-02T04:55:04;0.80;;;0.80;;
20699;SDS011;10511;51.232;9.420;2023-07-02T04:57:31;0.90;;;0.90;;
20699;SDS011;10511;51.232;9.420;2023-07-02T04:59:58;0.80;;;0.80;;
20699;SDS011;10511;51.232;9.420;2023-07-02T05:02:25;0.80;;;0.80;;
20699;SDS011;10511;51.232;9.420;2023-07-02T05:04:53;0.80;;;0.80;;
20699;SDS011;10511;51.232;9.420;2023-07-02T05:07:20;0.90;;;0.90;;
20699;SDS011;10511;51.232;9.420;2023-07-02T05:09:47;0.80;;;0.80;;
20699;SDS011;10511;51.232;9.420;2023-07-02T05:12:16;0.80;;;0.80;;
20699;SDS011;10511;51.232;9.420;2023-07-02T05:14:43;0.80;;;0.80;;
20699;SDS011;10511;51.232;9.420;2023-07-02T05:17:11;0.90;;;0.90;;
20699;SDS011;10511;51.232;9.420;2023-07-02T05:19:39;0.90;;;0.90;;
20699;SDS011;10511;51.232;9.420;2023-07-02T05:22:08;0.90;;;0.90;;
20699;SDS011;10511;51.232;9.420;2023-07-02T05:24:36;0.80;;;0.80;;
20699;SDS011;10511;51.232;9.420;2023-07-02T05:27:03;0.90;;;0.90;;
20699;SDS011;10511;51.232;9.420;2023-07-02T05:29:30;0.80;;;0.80;;
20699;SDS011;10511;51.232;9.420;2023-07-02T05:31:57;0.90;;;0.90;;
20699;SDS011;10511;51.232;9.420;2023-07-02T05:34:24;0.90;;;0.90;;
20699;SDS011;10511;51.232;9.420;2023-07-02T05:36:51;0.80;;;0.80;;
20699;SDS011;10511;51.232;9.420;2023-07-02T05:39:19;0.80;;;0.80;;
20699;SDS011;10511;51.232;9.420;2023-07-02T05:41:47;0.80;;;0.80;;
20699;SDS011;10511;51.232;9.420;2023-07-02T05:44:14;0.80;;;0.80;;
20699;SDS011;10511;51.232;9.420;2023-07-02T05:46:41;0.80;;;0.80;;
20699;SDS011;10511;51.232;9.420;2023-07-02T05:49:08;0.80;;;0.80;;
20699;SDS011;10511;51.232;9.420;2023-07-02T05:51:35;0.80;;;0.80;;
20699;SDS011;10511;51.232;9.420;2023-07-02T05:54:02;0.80;;;0.80;;
20699;SDS011;10511;51.232;9.420;2023-07-02T05:56:30;0.90;;;0.90;;
20699;SDS011;10511;51.232;9.420;2023-07-02T05:58:57;0.80;;;0.80;;
20699;SDS011;10511;51.232;9.420;2023-07-02T06:01:24;0.80;;;0.80;;
20699;SDS011;10511;51.232;9.420;2023-07-02T06:03:51;0.80;;;0.80;;
20699;SDS011;10511;51.232;9.420;2023-07-02T06:06:18;0.90;;;0.90;;
20699;SDS011;10511;51.232;9.420;2023-07-02T06:08:45;0.80;;;0.80;;
20699;SDS011;10511;51.232;9.420;2023-07-02T06:11:12;0.80;;;0.80;;
20699;SDS011;10511;51.232;9.420;2023-07-02T06:13:40;0.80;;;0.80;;
20699;SDS011;10511;51.232;9.420;2023-07-02T06:16:07;0.70;;;0.70;;
20699;SDS011;10511;51.232;9.420;2023-07-02T06:18:34;0.80;;;0.80;;
20699;SDS011;10511;51.232;9.420;2023-07-02T06:21:01;0.80;;;0.80;;
20699;SDS011;10511;51.232;9.420;2023-07-02T06:23:29;0.70;;;0.70;;
20699;SDS011;10511;51.232;9.420;2023-07-02T06:25:56;0.73;;;0.73;;
20699;SDS011;10511;51.232;9.420;2023-07-02T06:28:26;0.90;;;0.90;;
20699;SDS011;10511;51.232;9.420;2023-07-02T06:30:54;0.90;;;0.90;;
20699;SDS011;10511;51.232;9.420;2023-07-02T06:33:21;0.80;;;0.80;;
20699;SDS011;10511;51.232;9.420;2023-07-02T06:35:48;0.80;;;0.80;;
20699;SDS011;10511;51.232;9.420;2023-07-02T06:38:15;0.80;;;0.80;;
20699;SDS011;10511;51.232;9.420;2023-07-02T06:40:42;0.90;;;0.90;;
20699;SDS011;10511;51.232;9.420;2023-07-02T06:43:09;0.80;;;0.80;;
20699;SDS011;10511;51.232;9.420;2023-07-02T06:45:36;0.80;;;0.80;;
20699;SDS011;10511;51.232;9.420;2023-07-02T06:48:04;0.80;;;0.80;;
20699;SDS011;10511;51.232;9.420;2023-07-02T06:50:31;0.90;;;0.90;;
20699;SDS011;10511;51.232;9.420;2023-07-02T06:52:58;0.90;;;0.90;;
20699;SDS011;10511;51.232;9.420;2023-07-02T06:55:25;0.77;;;0.77;;
20699;SDS011;10511;51.232;9.420;2023-07-02T06:57:52;0.83;;;0.83;;
20699;SDS011;10511;51.232;9.420;2023-07-02T07:00:19;0.90;;;0.90;;
20699;SDS011;10511;51.232;9.420;2023-07-02T07:02:46;0.90;;;0.90;;
20699;SDS011;10511;51.232;9.420;2023-07-02T07:05:14;0.80;;;0.80;;
20699;SDS011;10511;51.232;9.420;2023-07-02T07:07:41;0.80;;;0.80;;
20699;SDS011;10511;51.232;9.420;2023-07-02T07:10:08;0.80;;;0.80;;
20699;SDS011;10511;51.232;9.420;2023-07-02T07:12:35;0.80;;;0.80;;
20699;SDS011;10511;51.232;9.420;2023-07-02T07:15:02;0.90;;;0.90;;
20699;SDS011;10511;51.232;9.420;2023-07-02T07:17:30;0.87;;;0.87;;
20699;SDS011;10511;51.232;9.420;2023-07-02T07:19:56;0.80;;;0.80;;
20699;SDS011;10511;51.232;9.420;2023-07-02T07:22:25;0.80;;;0.80;;
20699;SDS011;10511;51.232;9.420;2023-07-02T07:24:51;0.80;;;0.80;;
20699;SDS011;10511;51.232;9.420;2023-07-02T07:27:18;0.90;;;0.90;;
20699;SDS011;10511;51.232;9.420;2023-07-02T07:29:45;0.80;;;0.80;;
20699;SDS011;10511;51.232;9.420;2023-07-02T07:32:12;0.80;;;0.80;;
20699;SDS011;10511;51.232;9.420;2023-07-02T07:34:39;0.80;;;0.80;;
20699;SDS011;10511;51.232;9.420;2023-07-02T07:37:06;0.80;;;0.80;;
20699;SDS011;10511;51.232;9.420;2023-07-02T07:39:36;0.83;;;0.83;;
20699;SDS011;10511;51.232;9.420;2023-07-02T07:42:03;0.80;;;0.80;;
20699;SDS011;10511;51.232;9.420;2023-07-02T07:44:31;0.80;;;0.80;;
20699;SDS011;10511;51.232;9.420;2023-07-02T07:46:58;0.90;;;0.90;;
20699;SDS011;10511;51.232;9.420;2023-07-02T07:49:25;0.80;;;0.80;;
20699;SDS011;10511;51.232;9.420;2023-07-02T07:51:52;0.90;;;0.90;;
20699;SDS011;10511;51.232;9.420;2023-07-02T07:54:18;0.83;;;0.83;;
20699;SDS011;10511;51.232;9.420;2023-07-02T07:56:47;0.80;;;0.80;;
20699;SDS011;10511;51.232;9.420;2023-07-02T07:59:14;0.80;;;0.80;;
20699;SDS011;10511;51.232;9.420;2023-07-02T08:01:40;0.80;;;0.80;;
20699;SDS011;10511;51.232;9.420;2023-07-02T08:04:07;0.80;;;0.80;;
20699;SDS011;10511;51.232;9.420;2023-07-02T08:06:34;0.80;;;0.80;;
20699;SDS011;10511;51.232;9.420;2023-07-02T08:09:01;0.80;;;0.80;;
20699;SDS011;10511;51.232;9.420;2023-07-02T08:11:29;0.80;;;0.80;;
20699;SDS011;10511;51.232;9.420;2023-07-02T08:13:57;0.93;;;0.93;;
20699;SDS011;10511;51.232;9.420;2023-07-02T08:16:24;0.80;;;0.80;;
20699;SDS011;10511;51.232;9.420;2023-07-02T08:18:51;0.80;;;0.80;;
20699;SDS011;10511;51.232;9.420;2023-07-02T08:21:18;0.90;;;0.90;;
20699;SDS011;10511;51.232;9.420;2023-07-02T08:23:45;0.80;;;0.80;;
20699;SDS011;10511;51.232;9.420;2023-07-02T08:26:12;0.80;;;0.80;;
20699;SDS011;10511;51.232;9.420;2023-07-02T08:28:39;0.80;;;0.80;;
20699;SDS011;10511;51.232;9.420;2023-07-02T08:31:07;0.90;;;0.90;;
20699;SDS011;10511;51.232;9.420;2023-07-02T08:33:34;0.80;;;0.80;;
20699;SDS011;10511;51.232;9.420;2023-07-02T08:36:01;0.70;;;0.70;;
20699;SDS011;10511;51.232;9.420;2023-07-02T08:38:28;0.80;;;0.80;;
20699;SDS011;10511;51.232;9.420;2023-07-02T08:40:56;0.70;;;0.70;;
20699;SDS011;10511;51.232;9.420;2023-07-02T08:43:23;0.80;;;0.80;;
20699;SDS011;10511;51.232;9.420;2023-07-02T08:45:53;0.90;;;0.90;;
20699;SDS011;10511;51.232;9.420;2023-07-02T08:48:21;0.80;;;0.80;;
20699;SDS011;10511;51.232;9.420;2023-07-02T08:50:49;0.90;;;0.90;;
20699;SDS011;10511;51.232;9.420;2023-07-02T08:53:16;0.73;;;0.73;;
20699;SDS011;10511;51.232;9.420;2023-07-02T08:55:44;0.80;;;0.80;;
20699;SDS011;10511;51.232;9.420;2023-07-02T08:58:14;0.87;;;0.87;;
20699;SDS011;10511;51.232;9.420;2023-07-02T09:00:41;0.80;;;0.80;;
20699;SDS011;10511;51.232;9.420;2023-07-02T09:03:33;0.80;;;0.80;;
20699;SDS011;10511;51.232;9.420;2023-07-02T09:06:02;0.73;;;0.73;;
20699;SDS011;10511;51.232;9.420;2023-07-02T09:08:29;0.80;;;0.80;;
20699;SDS011;10511;51.232;9.420;2023-07-02T09:11:07;0.90;;;0.90;;
20699;SDS011;10511;51.232;9.420;2023-07-02T09:13:44;0.80;;;0.80;;
20699;SDS011;10511;51.232;9.420;2023-07-02T09:16:25;0.70;;;0.70;;
20699;SDS011;10511;51.232;9.420;2023-07-02T09:18:58;0.70;;;0.70;;
20699;SDS011;10511;51.232;9.420;2023-07-02T09:21:26;0.80;;;0.80;;
20699;SDS011;10511;51.232;9.420;2023-07-02T09:23:54;0.80;;;0.80;;
20699;SDS011;10511;51.232;9.420;2023-07-02T09:26:21;0.70;;;0.70;;
20699;SDS011;10511;51.232;9.420;2023-07-02T09:28:48;0.80;;;0.80;;
20699;SDS011;10511;51.232;9.420;2023-07-02T09:31:15;0.80;;;0.80;;
20699;SDS011;10511;51.232;9.420;2023-07-02T09:33:42;0.70;;;0.70;;
20699;SDS011;10511;51.232;9.420;2023-07-02T09:36:11;0.80;;;0.80;;
20699;SDS011;10511;51.232;9.420;2023-07-02T09:38:38;0.80;;;0.80;;
20699;SDS011;10511;51.232;9.420;2023-07-02T09:41:06;0.70;;;0.70;;
20699;SDS011;10511;51.232;9.420;2023-07-02T09:43:34;0.80;;;0.80;;
20699;SDS011;10511;51.232;9.420;2023-07-02T09:46:01;0.80;;;0.80;;
20699;SDS011;10511;51.232;9.420;2023-07-02T09:48:29;0.70;;;0.70;;
20699;SDS011;10511;51.232;9.420;2023-07-02T09:51:01;0.90;;;0.90;;
20699;SDS011;10511;51.232;9.420;2023-07-02T09:53:30;0.77;;;0.77;;
20699;SDS011;10511;51.232;9.420;2023-07-02T09:55:57;0.80;;;0.80;;
20699;SDS011;10511;51.232;9.420;2023-07-02T09:58:25;0.80;;;0.80;;
20699;SDS011;10511;51.232;9.420;2023-07-02T10:00:52;0.80;;;0.80;;
20699;SDS011;10511;51.232;9.420;2023-07-02T10:03:27;0.77;;;0.77;;
20699;SDS011;10511;51.232;9.420;2023-07-02T10:06:02;0.70;;;0.70;;
20699;SDS011;10511;51.232;9.420;2023-07-02T10:08:32;0.80;;;0.80;;
20699;SDS011;10511;51.232;9.420;2023-07-02T10:11:09;0.70;;;0.70;;
20699;SDS011;10511;51.232;9.420;2023-07-02T10:13:36;0.80;;;0.80;;
20699;SDS011;10511;51.232;9.420;2023-07-02T10:16:04;0.70;;;0.70;;
20699;SDS011;10511;51.232;9.420;2023-07-02T10:18:32;0.70;;;0.70;;
20699;SDS011;10511;51.232;9.420;2023-07-02T10:20:59;0.77;;;0.77;;
20699;SDS011;10511;51.232;9.420;2023-07-02T10:23:34;0.70;;;0.70;;
20699;SDS011;10511;51.232;9.420;2023-07-02T10:26:12;0.70;;;0.70;;
20699;SDS011;10511;51.232;9.420;2023-07-02T10:28:40;0.70;;;0.70;;
20699;SDS011;10511;51.232;9.420;2023-07-02T10:31:17;0.70;;;0.70;;
20699;SDS011;10511;51.232;9.420;2023-07-02T10:33:48;0.70;;;0.70;;
20699;SDS011;10511;51.232;9.420;2023-07-02T10:36:18;0.80;;;0.80;;
20699;SDS011;10511;51.232;9.420;2023-07-02T10:38:47;0.70;;;0.70;;
20699;SDS011;10511;51.232;9.420;2023-07-02T10:41:23;0.70;;;0.70;;
20699;SDS011;10511;51.232;9.420;2023-07-02T10:43:50;0.70;;;0.70;;
20699;SDS011;10511;51.232;9.420;2023-07-02T10:46:21;0.70;;;0.70;;
20699;SDS011;10511;51.232;9.420;2023-07-02T10:48:52;0.80;;;0.80;;
20699;SDS011;10511;51.232;9.420;2023-07-02T10:51:19;0.70;;;0.70;;
20699;SDS011;10511;51.232;9.420;2023-07-02T10:53:55;0.80;;;0.80;;
20699;SDS011;10511;51.232;9.420;2023-07-02T10:56:23;0.70;;;0.70;;
20699;SDS011;10511;51.232;9.420;2023-07-02T10:58:51;0.87;;;0.87;;
20699;SDS011;10511;51.232;9.420;2023-07-02T11:01:21;0.80;;;0.80;;
20699;SDS011;10511;51.232;9.420;2023-07-02T11:03:55;0.70;;;0.70;;
20699;SDS011;10511;51.232;9.420;2023-07-02T11:06:22;0.80;;;0.80;;
20699;SDS011;10511;51.232;9.420;2023-07-02T11:08:50;0.70;;;0.70;;
20699;SDS011;10511;51.232;9.420;2023-07-02T11:11:17;0.77;;;0.77;;
20699;SDS011;10511;51.232;9.420;2023-07-02T11:13:44;0.80;;;0.80;;
20699;SDS011;10511;51.232;9.420;2023-07-02T11:16:19;0.70;;;0.70;;
20699;SDS011;10511;51.232;9.420;2023-07-02T11:18:49;0.70;;;0.70;;
20699;SDS011;10511;51.232;9.420;2023-07-02T11:21:16;0.70;;;0.70;;
20699;SDS011;10511;51.232;9.420;2023-07-02T11:23:43;0.70;;;0.70;;
20699;SDS011;10511;51.232;9.420;2023-07-02T11:26:12;0.70;;;0.70;;
20699;SDS011;10511;51.232;9.420;2023-07-02T11:28:47;0.90;;;0.90;;
20699;SDS011;10511;51.232;9.420;2023-07-02T11:31:24;0.70;;;0.70;;
20699;SDS011;10511;51.232;9.420;2023-07-02T11:33:52;0.70;;;0.70;;
20699;SDS011;10511;51.232;9.420;2023-07-02T11:36:20;0.87;;;0.87;;
20699;SDS011;10511;51.232;9.420;2023-07-02T11:38:48;0.80;;;0.80;;
20699;SDS011;10511;51.232;9.420;2023-07-02T11:41:18;0.70;;;0.70;;
20699;SDS011;10511;51.232;9.420;2023-07-02T11:43:45;0.80;;;0.80;;
20699;SDS011;10511;51.232;9.420;2023-07-02T11:46:12;0.70;;;0.70;;
20699;SDS011;10511;51.232;9.420;2023-07-02T11:48:39;0.77;;;0.77;;
20699;SDS011;10511;51.232;9.420;2023-07-02T11:51:06;0.70;;;0.70;;
20699;SDS011;10511;51.232;9.420;2023-07-02T11:53:33;0.80;;;0.80;;
20699;SDS011;10511;51.232;9.420;2023-07-02T11:56:00;0.80;;;0.80;;
20699;SDS011;10511;51.232;9.420;2023-07-02T11:58:28;0.80;;;0.80;;
20699;SDS011;10511;51.232;9.420;2023-07-02T12:00:55;0.80;;;0.80;;
20699;SDS011;10511;51.232;9.420;2023-07-02T12:03:22;0.77;;;0.77;;
20699;SDS011;10511;51.232;9.420;2023-07-02T12:05:49;0.80;;;0.80;;
20699;SDS011;10511;51.232;9.420;2023-07-02T12:08:16;0.80;;;0.80;;
20699;SDS011;10511;51.232;9.420;2023-07-02T12:10:43;0.80;;;0.80;;
20699;SDS011;10511;51.232;9.420;2023-07-02T12:13:10;0.80;;;0.80;;
20699;SDS011;10511;51.232;9.420;2023-07-02T12:15:39;0.73;;;0.73;;
20699;SDS011;10511;51.232;9.420;2023-07-02T12:18:07;0.80;;;0.80;;
20699;SDS011;10511;51.232;9.420;2023-07-02T12:20:34;0.70;;;0.70;;
20699;SDS011;10511;51.232;9.420;2023-07-02T12:23:01;0.70;;;0.70;;
20699;SDS011;10511;51.232;9.420;2023-07-02T12:25:28;0.80;;;0.80;;
20699;SDS011;10511;51.232;9.420;2023-07-02T12:27:55;0.70;;;0.70;;
20699;SDS011;10511;51.232;9.420;2023-07-02T12:30:22;0.80;;;0.80;;
20699;SDS011;10511;51.232;9.420;2023-07-02T12:32:50;0.70;;;0.70;;
20699;SDS011;10511;51.232;9.420;2023-07-02T12:35:17;0.80;;;0.80;;
20699;SDS011;10511;51.232;9.420;2023-07-02T12:37:44;0.80;;;0.80;;
20699;SDS011;10511;51.232;9.420;2023-07-02T12:40:11;0.70;;;0.70;;
20699;SDS011;10511;51.232;9.420;2023-07-02T12:42:38;0.80;;;0.80;;
20699;SDS011;10511;51.232;9.420;2023-07-02T12:45:07;0.77;;;0.77;;
20699;SDS011;10511;51.232;9.420;2023-07-02T12:47:36;0.80;;;0.80;;
20699;SDS011;10511;51.232;9.420;2023-07-02T12:50:06;0.80;;;0.80;;
20699;SDS011;10511;51.232;9.420;2023-07-02T12:52:34;0.70;;;0.70;;
20699;SDS011;10511;51.232;9.420;2023-07-02T12:55:01;0.80;;;0.80;;
20699;SDS011;10511;51.232;9.420;2023-07-02T12:57:28;0.70;;;0.70;;
20699;SDS011;10511;51.232;9.420;2023-07-02T12:59:55;0.77;;;0.77;;
20699;SDS011;10511;51.232;9.420;2023-07-02T13:02:23;0.80;;;0.80;;
20699;SDS011;10511;51.232;9.420;2023-07-02T13:04:50;0.70;;;0.70;;
20699;SDS011;10511;51.232;9.420;2023-07-02T13:07:19;0.80;;;0.80;;
20699;SDS011;10511;51.232;9.420;2023-07-02T13:09:48;0.80;;;0.80;;
20699;SDS011;10511;51.232;9.420;2023-07-02T13:12:15;0.80;;;0.80;;
20699;SDS011;10511;51.232;9.420;2023-07-02T13:14:43;0.70;;;0.70;;
20699;SDS011;10511;51.232;9.420;2023-07-02T13:17:10;0.80;;;0.80;;
20699;SDS011;10511;51.232;9.420;2023-07-02T13:19:36;0.90;;;0.90;;
20699;SDS011;10511;51.232;9.420;2023-07-02T13:22:03;1.00;;;1.00;;
20699;SDS011;10511;51.232;9.420;2023-07-02T13:24:35;1.57;;;1.57;;
20699;SDS011;10511;51.232;9.420;2023-07-02T13:27:03;1.23;;;1.23;;
20699;SDS011;10511;51.232;9.420;2023-07-02T13:29:33;1.17;;;1.17;;
20699;SDS011;10511;51.232;9.420;2023-07-02T13:32:00;0.90;;;0.90;;
20699;SDS011;10511;51.232;9.420;2023-07-02T13:34:27;0.73;;;0.73;;
20699;SDS011;10511;51.232;9.420;2023-07-02T13:36:54;0.90;;;0.90;;
20699;SDS011;10511;51.232;9.420;2023-07-02T13:39:21;0.80;;;0.80;;
20699;SDS011;10511;51.232;9.420;2023-07-02T13:41:49;0.90;;;0.90;;
20699;SDS011;10511;51.232;9.420;2023-07-02T13:44:16;0.90;;;0.90;;
20699;SDS011;10511;51.232;9.420;2023-07-02T13:46:43;0.83;;;0.83;;
20699;SDS011;10511;51.232;9.420;2023-07-02T13:49:11;1.30;;;1.30;;
20699;SDS011;10511;51.232;9.420;2023-07-02T13:51:38;0.97;;;0.97;;
20699;SDS011;10511;51.232;9.420;2023-07-02T13:54:05;0.90;;;0.90;;
20699;SDS011;10511;51.232;9.420;2023-07-02T13:56:32;0.90;;;0.90;;
20699;SDS011;10511;51.232;9.420;2023-07-02T13:59:03;0.87;;;0.87;;
20699;SDS011;10511;51.232;9.420;2023-07-02T14:01:31;0.80;;;0.80;;
20699;SDS011;10511;51.232;9.420;2023-07-02T14:03:59;0.90;;;0.90;;
20699;SDS011;10511;51.232;9.420;2023-07-02T14:06:26;0.70;;;0.70;;
20699;SDS011;10511;51.232;9.420;2023-07-02T14:08:53;0.87;;;0.87;;
20699;SDS011;10511;51.232;9.420;2023-07-02T14:11:20;0.90;;;0.90;;
20699;SDS011;10511;51.232;9.420;2023-07-02T14:13:48;0.87;;;0.87;;
20699;SDS011;10511;51.232;9.420;2023-07-02T14:16:16;1.00;;;1.00;;
20699;SDS011;10511;51.232;9.420;2023-07-02T14:18:43;0.83;;;0.83;;
20699;SDS011;10511;51.232;9.420;2023-07-02T14:21:10;1.27;;;1.27;;
20699;SDS011;10511;51.232;9.420;2023-07-02T14:23:37;1.33;;;1.33;;
20699;SDS011;10511;51.232;9.420;2023-07-02T14:26:04;1.00;;;1.00;;
20699;SDS011;10511;51.232;9.420;2023-07-02T14:28:33;1.10;;;1.10;;
20699;SDS011;10511;51.232;9.420;2023-07-02T14:31:00;1.07;;;1.07;;
20699;SDS011;10511;51.232;9.420;2023-07-02T14:33:30;1.00;;;1.00;;
20699;SDS011;10511;51.232;9.420;2023-07-02T14:35:59;1.63;;;1.63;;
20699;SDS011;10511;51.232;9.420;2023-07-02T14:38:26;1.90;;;1.80;;
20699;SDS011;10511;51.232;9.420;2023-07-02T14:40:54;1.50;;;1.50;;
20699;SDS011;10511;51.232;9.420;2023-07-02T14:43:22;1.37;;;1.37;;
20699;SDS011;10511;51.232;9.420;2023-07-02T14:45:52;1.30;;;1.30;;
20699;SDS011;10511;51.232;9.420;2023-07-02T14:48:20;1.10;;;1.10;;
20699;SDS011;10511;51.232;9.420;2023-07-02T14:50:49;1.27;;;1.27;;
20699;SDS011;10511;51.232;9.420;2023-07-02T14:53:17;2.10;;;2.00;;